createdAt,value
2019-04-23T00:02:58.822Z,13.48
2019-04-23T00:05:54.935Z,14.58
2019-04-23T00:08:59.246Z,20.35
2019-04-23T00:11:51.649Z,18.45
2019-04-23T00:14:58.646Z,17.45
2019-04-23T00:20:43.153Z,14.58
2019-04-23T00:23:46.457Z,14.90
2019-04-23T00:26:42.683Z,15.48
2019-04-23T00:29:46.529Z,16.37
2019-04-23T00:32:36.299Z,13.90
2019-04-23T00:35:37.189Z,16.62
2019-04-23T00:38:35.194Z,13.50
2019-04-23T00:41:33.347Z,14.20
2019-04-23T00:44:32.219Z,14.30
2019-04-23T00:47:28.336Z,14.58
2019-04-23T00:50:28.376Z,13.62
2019-04-23T00:53:18.844Z,15.08
2019-04-23T00:56:35.614Z,15.85
2019-04-23T00:59:18.206Z,15.58
2019-04-23T01:02:12.960Z,13.68
2019-04-23T01:05:22.188Z,16.02
2019-04-23T01:08:11.794Z,15.30
2019-04-23T01:11:16.408Z,15.55
2019-04-23T01:14:17.967Z,13.78
2019-04-23T01:17:17.340Z,13.70
2019-04-23T01:20:18.890Z,13.75
2019-04-23T01:22:54.908Z,14.30
2019-04-23T01:25:58.999Z,15.03
2019-04-23T01:29:12.823Z,14.50
2019-04-23T01:32:12.039Z,12.95
2019-04-23T01:38:04.801Z,15.70
2019-04-23T01:41:09.523Z,12.35
2019-04-23T01:44:00.903Z,14.43
2019-04-23T01:47:00.810Z,14.33
2019-04-23T01:52:59.260Z,17.12
2019-04-23T01:55:52.755Z,14.75
2019-04-23T01:58:57.606Z,15.08
2019-04-23T02:01:51.517Z,14.05
2019-04-23T02:04:55.627Z,12.03
2019-04-23T02:13:43.496Z,15.80
2019-04-23T02:16:38.231Z,15.43
2019-04-23T02:19:38.516Z,16.97
2019-04-23T02:28:46.311Z,15.32
2019-04-23T02:38:00.631Z,17.07
2019-04-23T02:40:54.989Z,14.20
2019-04-23T02:43:59.327Z,16.05
2019-04-23T02:46:24.484Z,15.08
2019-04-23T02:52:28.845Z,14.50
2019-04-23T02:55:39.431Z,16.37
2019-04-23T03:04:32.773Z,15.83
2019-04-23T03:10:16.065Z,20.37
2019-04-23T03:13:28.750Z,13.35
2019-04-23T03:16:38.121Z,13.78
2019-04-23T03:37:55.760Z,13.93
2019-04-23T03:40:57.102Z,14.47
2019-04-23T03:43:51.523Z,15.10
2019-04-23T03:46:44.256Z,13.30
2019-04-23T03:49:50.997Z,14.20
2019-04-23T03:52:42.310Z,12.90
2019-04-23T03:55:45.056Z,15.45
2019-04-23T04:04:33.384Z,15.58
2019-04-23T04:07:35.825Z,14.47
2019-04-23T04:10:41.296Z,15.13
2019-04-23T04:13:31.057Z,14.30
2019-04-23T04:19:31.599Z,14.58
2019-04-23T04:31:34.678Z,15.10
2019-04-23T04:34:22.237Z,16.87
2019-04-23T04:40:10.846Z,18.65
2019-04-23T04:43:24.903Z,15.58
2019-04-23T04:48:59.025Z,15.55
2019-04-23T04:52:15.663Z,15.38
2019-04-23T04:54:39.331Z,15.23
2019-04-23T04:57:58.164Z,13.60
2019-04-23T05:03:58.240Z,16.97
2019-04-23T05:06:51.216Z,16.85
2019-04-23T05:12:36.114Z,19.75
2019-04-23T05:15:37.270Z,13.32
2019-04-23T05:18:46.854Z,15.45
2019-04-23T05:24:36.804Z,13.65
2019-04-23T05:27:43.144Z,18.73
2019-04-23T05:30:33.096Z,13.25
2019-04-23T05:33:25.477Z,16.80
2019-04-23T05:36:34.356Z,14.43
2019-04-23T05:39:30.664Z,17.97
2019-04-23T05:42:38.002Z,14.73
2019-04-23T05:45:21.650Z,15.25
2019-04-23T05:48:14.991Z,14.43
2019-04-23T05:51:11.527Z,16.67
2019-04-23T05:54:06.532Z,18.65
2019-04-23T05:57:01.713Z,12.20
2019-04-23T06:00:04.922Z,13.43
2019-04-23T06:03:08.088Z,15.05
2019-04-23T06:06:18.511Z,15.00
2019-04-23T06:08:52.805Z,11.60
2019-04-23T06:14:53.777Z,17.12
2019-04-23T06:17:52.613Z,19.27
2019-04-23T06:20:52.267Z,15.83
2019-04-23T06:23:58.618Z,14.33
2019-04-23T06:29:51.548Z,13.70
2019-04-23T06:32:32.931Z,13.30
2019-04-23T06:35:29.440Z,12.97
2019-04-23T06:38:42.256Z,13.85
2019-04-23T06:41:30.610Z,10.83
2019-04-23T06:44:55.303Z,13.57
2019-04-23T06:47:55.532Z,12.50
2019-04-23T06:50:50.892Z,14.77
2019-04-23T06:53:37.392Z,11.07
2019-04-23T06:56:43.520Z,12.77
2019-04-23T06:59:39.198Z,14.20
2019-04-23T07:02:32.341Z,11.73
2019-04-23T07:05:55.148Z,11.60
2019-04-23T07:09:05.280Z,14.37
2019-04-23T07:11:47.566Z,11.43
2019-04-23T07:15:02.704Z,11.07
2019-04-23T07:17:39.521Z,12.10
2019-04-23T07:20:40.684Z,11.73
2019-04-23T07:23:44.934Z,11.40
2019-04-23T07:26:40.429Z,9.90
2019-04-23T07:29:40.480Z,8.97
2019-04-23T07:32:52.875Z,10.17
2019-04-23T07:35:30.470Z,10.40
2019-04-23T07:38:48.171Z,9.00
2019-04-23T07:42:03.464Z,10.53
2019-04-23T07:45:16.088Z,8.77
2019-04-23T07:48:14.964Z,12.87
2019-04-23T07:51:14.204Z,11.47
2019-04-23T07:57:21.629Z,13.93
2019-04-23T08:00:00.786Z,10.70
2019-04-23T08:03:08.486Z,14.17
2019-04-23T08:09:09.153Z,11.97
2019-04-23T08:11:45.949Z,10.70
2019-04-23T08:14:53.493Z,9.20
2019-04-23T08:17:41.549Z,12.40
2019-04-23T08:20:47.445Z,11.57
2019-04-23T08:24:08.673Z,9.37
2019-04-23T08:30:09.441Z,10.63
2019-04-23T08:33:11.019Z,16.07
2019-04-23T08:36:11.716Z,9.93
2019-04-23T08:39:05.464Z,13.97
2019-04-23T08:45:31.370Z,14.07
2019-04-23T08:48:27.820Z,12.57
2019-04-23T08:51:29.419Z,10.33
2019-04-23T08:54:25.319Z,15.50
2019-04-23T08:57:14.487Z,10.87
2019-04-23T09:00:09.109Z,16.17
2019-04-23T09:03:12.106Z,12.63
2019-04-23T09:06:06.302Z,16.10
2019-04-23T09:08:56.860Z,10.23
2019-04-23T09:12:21.580Z,10.43
2019-04-23T09:15:01.929Z,13.27
2019-04-23T09:17:55.609Z,11.27
2019-04-23T09:20:45.476Z,11.23
2019-04-23T09:23:46.817Z,12.60
2019-04-23T09:26:40.084Z,16.23
2019-04-23T09:29:45.796Z,16.23
2019-04-23T09:32:47.284Z,10.00
2019-04-23T09:36:08.248Z,13.50
2019-04-23T09:45:59.781Z,15.33
2019-04-23T09:48:49.311Z,14.63
2019-04-23T09:51:38.221Z,13.97
2019-04-23T09:54:45.886Z,13.90
2019-04-23T09:57:41.559Z,14.10
2019-04-23T10:00:36.378Z,16.40
2019-04-23T10:03:16.173Z,18.53
2019-04-23T10:06:04.306Z,17.67
2019-04-23T10:08:57.844Z,19.00
2019-04-23T10:11:51.198Z,13.80
2019-04-23T10:14:59.262Z,17.30
2019-04-23T10:17:44.502Z,14.27
2019-04-23T10:20:40.442Z,19.37
2019-04-23T10:23:37.184Z,11.60
2019-04-23T10:26:34.361Z,17.47
2019-04-23T10:29:34.264Z,13.07
2019-04-23T10:32:29.858Z,15.90
2019-04-23T10:35:39.469Z,16.43
2019-04-23T10:38:24.620Z,13.83
2019-04-23T10:41:22.314Z,12.57
2019-04-23T10:44:52.500Z,15.27
2019-04-23T10:48:38.806Z,14.87
2019-04-23T10:57:26.579Z,13.87
2019-04-23T11:00:30.275Z,12.87
2019-04-23T11:03:42.064Z,14.83
2019-04-23T11:09:38.586Z,15.57
2019-04-23T11:12:32.926Z,22.57
2019-04-23T11:15:32.310Z,15.83
2019-04-23T11:18:08.979Z,18.47
2019-04-23T11:21:26.490Z,18.60
2019-04-23T11:24:20.788Z,18.87
2019-04-23T11:27:17.756Z,15.43
2019-04-23T11:30:19.084Z,13.77
2019-04-23T11:33:10.176Z,13.60
2019-04-23T11:42:26.212Z,18.27
2019-04-23T11:44:56.648Z,18.10
2019-04-23T11:53:51.003Z,14.50
2019-04-23T12:06:12.093Z,17.50
2019-04-23T12:09:21.529Z,14.03
2019-04-23T12:15:13.008Z,15.67
2019-04-23T12:18:10.119Z,20.30
2019-04-23T12:21:12.696Z,18.07
2019-04-23T12:24:15.676Z,18.83
2019-04-23T12:30:08.558Z,15.30
2019-04-23T12:33:06.978Z,18.70
2019-04-23T12:36:26.205Z,15.10
2019-04-23T12:39:23.889Z,16.27
2019-04-23T12:42:34.454Z,14.77
2019-04-23T12:50:56.971Z,17.07
2019-04-23T12:54:02.224Z,15.33
2019-04-23T12:57:09.013Z,13.97
2019-04-23T13:00:00.326Z,13.57
2019-04-23T13:02:52.002Z,19.10
2019-04-23T13:05:35.972Z,20.73
2019-04-23T13:09:11.735Z,14.73
2019-04-23T13:11:40.685Z,16.57
2019-04-23T13:17:50.541Z,15.67
2019-04-23T13:20:36.889Z,18.50
2019-04-23T13:23:34.667Z,20.70
2019-04-23T13:26:30.889Z,16.93
2019-04-23T13:29:37.979Z,13.73
2019-04-23T13:32:27.610Z,17.10
2019-04-23T13:44:19.202Z,15.73
2019-04-23T13:47:19.645Z,15.57
2019-04-23T13:50:20.431Z,16.27
2019-04-23T13:53:17.849Z,17.97
2019-04-23T13:56:19.252Z,20.07
2019-04-23T13:59:16.534Z,15.40
2019-04-23T14:02:18.035Z,18.90
2019-04-23T14:05:12.648Z,16.57
2019-04-23T14:08:23.297Z,15.77
2019-04-23T14:11:10.824Z,21.27
2019-04-23T14:14:16.744Z,26.67
2019-04-23T14:17:12.615Z,22.53
2019-04-23T14:23:08.633Z,22.67
2019-04-23T14:26:10.560Z,28.37
2019-04-23T14:28:51.179Z,22.80
2019-04-23T14:31:56.839Z,22.43
2019-04-23T14:34:54.136Z,26.47
2019-04-23T14:38:07.348Z,22.57
2019-04-23T14:49:46.454Z,18.03
2019-04-23T14:52:39.004Z,17.83
2019-04-23T14:55:57.000Z,18.13
2019-04-23T14:58:58.013Z,21.67
2019-04-23T15:04:33.614Z,21.27
2019-04-23T15:10:24.559Z,19.00
2019-04-23T15:13:22.723Z,19.10
2019-04-23T15:22:21.733Z,23.83
2019-04-23T15:28:06.680Z,15.27
2019-04-23T15:31:09.598Z,18.13
2019-04-23T15:40:02.433Z,16.63
2019-04-23T15:43:03.999Z,19.17
2019-04-23T15:45:52.688Z,19.77
2019-04-23T15:49:01.131Z,20.53
2019-04-23T15:51:52.250Z,18.33
2019-04-23T15:54:51.496Z,24.37
2019-04-23T15:58:04.979Z,18.37
2019-04-23T16:00:55.880Z,19.03
2019-04-23T16:03:19.778Z,19.80
2019-04-23T16:06:15.660Z,23.07
2019-04-23T16:09:36.037Z,18.90
2019-04-23T16:12:43.738Z,22.07
2019-04-23T16:15:35.471Z,23.97
2019-04-23T16:19:02.187Z,16.93
2019-04-23T16:24:55.335Z,17.40
2019-04-23T16:27:51.821Z,15.60
2019-04-23T16:30:53.616Z,16.50
2019-04-23T16:33:53.263Z,12.18
2019-04-23T16:36:43.901Z,12.20
2019-04-23T16:39:49.277Z,15.63
2019-04-23T16:42:51.727Z,14.20
2019-04-23T16:45:49.263Z,20.33
2019-04-23T16:48:55.462Z,13.05
2019-04-23T16:51:32.440Z,14.65
2019-04-23T16:54:42.250Z,12.00
2019-04-23T16:57:48.051Z,10.58
2019-04-23T17:00:31.153Z,14.70
2019-04-23T17:03:33.381Z,14.87
2019-04-23T17:06:29.297Z,9.90
2019-04-23T17:09:26.498Z,12.50
2019-04-23T17:12:38.501Z,9.83
2019-04-23T17:18:22.016Z,10.85
2019-04-23T17:21:13.458Z,7.90
2019-04-23T17:24:20.863Z,9.37
2019-04-23T17:30:11.534Z,11.30
2019-04-23T17:33:22.326Z,9.17
2019-04-23T17:39:43.194Z,8.70
2019-04-23T17:45:54.757Z,8.73
2019-04-23T17:48:57.289Z,8.40
2019-04-23T17:51:55.836Z,8.20
2019-04-23T17:54:56.618Z,10.90
2019-04-23T17:57:49.926Z,11.53
2019-04-23T18:01:03.921Z,10.90
2019-04-23T18:09:51.739Z,10.35
2019-04-23T18:12:46.922Z,10.35
2019-04-23T18:15:39.657Z,9.88
2019-04-23T18:18:45.084Z,10.35
2019-04-23T18:21:50.666Z,8.98
2019-04-23T18:31:29.399Z,9.13
2019-04-23T18:34:26.528Z,7.47
2019-04-23T18:37:29.804Z,8.85
2019-04-23T18:40:05.174Z,8.08
2019-04-23T18:43:20.603Z,6.53
2019-04-23T18:46:18.554Z,7.62
2019-04-23T18:49:05.716Z,9.05
2019-04-23T18:52:06.626Z,6.67
2019-04-23T18:55:09.464Z,6.73
2019-04-23T18:58:03.898Z,9.23
2019-04-23T19:01:05.635Z,6.83
2019-04-23T19:04:17.449Z,6.67
2019-04-23T19:07:07.465Z,7.83
2019-04-23T19:10:32.073Z,7.10
2019-04-23T19:13:22.765Z,6.43
2019-04-23T19:16:18.414Z,6.00
2019-04-23T19:22:20.742Z,5.70
2019-04-23T19:28:24.167Z,5.50
2019-04-23T19:34:37.930Z,6.08
2019-04-23T19:40:12.023Z,5.25
2019-04-23T19:43:25.069Z,5.65
2019-04-23T19:46:12.726Z,4.87
2019-04-23T19:49:13.265Z,5.57
2019-04-23T19:51:57.680Z,6.15
2019-04-23T19:58:07.119Z,5.60
2019-04-23T20:01:10.267Z,5.78
2019-04-23T20:03:54.132Z,6.60
2019-04-23T20:12:42.919Z,5.97
2019-04-23T20:15:59.315Z,7.08
2019-04-23T20:21:44.302Z,7.87
2019-04-23T20:24:54.959Z,7.78
2019-04-23T20:31:04.109Z,7.37
2019-04-23T20:31:44.985Z,8.43
2019-04-23T20:36:51.364Z,7.75
2019-04-23T20:39:50.675Z,8.35
2019-04-23T20:42:49.782Z,8.65
2019-04-23T20:45:46.695Z,8.03
2019-04-23T20:48:48.174Z,8.83
2019-04-23T20:51:41.337Z,10.78
2019-04-23T20:54:50.918Z,10.05
2019-04-23T20:57:48.561Z,8.25
2019-04-23T21:04:25.524Z,9.90
2019-04-23T21:07:31.203Z,10.38
2019-04-23T21:10:22.673Z,9.88
2019-04-23T21:15:52.626Z,8.98
2019-04-23T21:19:11.964Z,8.40
2019-04-23T21:22:09.579Z,9.40
2019-04-23T21:25:00.263Z,10.38
2019-04-23T21:28:14.180Z,9.53
2019-04-23T21:31:06.557Z,9.53
2019-04-23T21:34:12.507Z,10.53
2019-04-23T21:37:06.526Z,10.15
2019-04-23T21:40:45.393Z,10.98
2019-04-23T21:44:52.771Z,10.60
2019-04-23T21:50:12.330Z,10.28
2019-04-23T21:52:51.226Z,10.63
2019-04-23T21:56:05.183Z,10.68
2019-04-23T21:58:53.319Z,12.70
2019-04-23T22:04:44.969Z,13.75
2019-04-23T22:07:58.176Z,14.23
2019-04-23T22:10:45.608Z,12.88
2019-04-23T22:16:47.009Z,16.48
2019-04-23T22:19:36.574Z,15.65
2019-04-23T22:22:34.296Z,17.05
2019-04-23T22:25:34.734Z,14.63
2019-04-23T22:28:31.453Z,18.32
2019-04-23T22:31:29.099Z,18.10
2019-04-23T22:37:16.235Z,16.75
2019-04-23T22:40:10.060Z,18.85
2019-04-23T22:43:17.824Z,17.07
2019-04-23T22:49:20.109Z,17.05
2019-04-23T22:52:08.731Z,20.05
2019-04-23T22:55:07.438Z,20.02
2019-04-23T23:04:23.700Z,19.23
2019-04-23T23:07:22.278Z,23.10
2019-04-23T23:10:20.283Z,20.25
2019-04-23T23:13:16.494Z,25.15
2019-04-23T23:16:10.539Z,20.90
2019-04-23T23:19:19.363Z,19.25
2019-04-23T23:22:09.964Z,19.77
2019-04-23T23:28:05.792Z,21.97
2019-04-23T23:31:05.290Z,25.27
2019-04-23T23:33:59.017Z,20.97
2019-04-23T23:37:07.549Z,22.55
2019-04-23T23:40:00.307Z,22.20
2019-04-23T23:43:02.367Z,21.50
2019-04-23T23:48:40.742Z,25.65
2019-04-23T23:51:40.295Z,24.57
2019-04-23T23:54:39.326Z,22.27
2019-04-23T23:57:30.884Z,24.43
